createdAt,value
2023-01-08T00:01:13.992Z,5.78
2023-01-08T00:03:41.481Z,6.47
2023-01-08T00:06:13.880Z,9.77
2023-01-08T00:08:40.706Z,6.03
2023-01-08T00:11:07.972Z,5.70
2023-01-08T00:13:34.919Z,5.70
2023-01-08T00:16:09.768Z,5.75
2023-01-08T00:18:36.760Z,5.63
2023-01-08T00:21:03.805Z,6.38
2023-01-08T00:23:30.782Z,5.80
2023-01-08T00:25:57.840Z,5.85
2023-01-08T00:28:24.624Z,5.85
2023-01-08T00:30:51.483Z,5.80
2023-01-08T00:33:18.374Z,6.13
2023-01-08T00:35:45.179Z,5.38
2023-01-08T00:38:12.491Z,5.57
2023-01-08T00:40:39.353Z,5.97
2023-01-08T00:43:06.972Z,6.10
2023-01-08T00:45:34.087Z,6.43
2023-01-08T00:48:00.900Z,6.13
2023-01-08T00:50:27.659Z,5.63
2023-01-08T00:52:54.866Z,6.10
2023-01-08T00:55:21.643Z,6.60
2023-01-08T00:57:48.392Z,7.18
2023-01-08T01:00:18.622Z,7.00
2023-01-08T01:02:45.650Z,7.10
2023-01-08T01:05:14.647Z,6.70
2023-01-08T01:07:42.856Z,6.35
2023-01-08T01:10:11.030Z,6.30
2023-01-08T01:12:39.079Z,6.75
2023-01-08T01:15:11.464Z,5.90
2023-01-08T01:17:40.431Z,6.50
2023-01-08T01:20:09.591Z,6.72
2023-01-08T01:22:36.876Z,6.70
2023-01-08T01:25:04.191Z,7.28
2023-01-08T01:27:30.946Z,7.10
2023-01-08T01:29:57.795Z,7.45
2023-01-08T01:32:24.516Z,7.70
2023-01-08T01:34:51.250Z,8.27
2023-01-08T01:37:18.208Z,7.30
2023-01-08T01:39:44.923Z,7.22
2023-01-08T01:42:16.239Z,6.95
2023-01-08T01:44:45.297Z,6.82
2023-01-08T01:47:17.878Z,8.13
2023-01-08T01:49:55.314Z,7.78
2023-01-08T01:52:23.274Z,7.40
2023-01-08T01:54:51.912Z,7.13
2023-01-08T01:57:18.965Z,7.60
2023-01-08T01:59:48.219Z,7.97
2023-01-08T02:02:16.963Z,8.20
2023-01-08T02:04:43.806Z,7.80
2023-01-08T02:07:21.369Z,6.82
2023-01-08T02:09:49.397Z,7.35
2023-01-08T02:12:31.016Z,7.78
2023-01-08T02:15:05.284Z,7.55
2023-01-08T02:18:10.138Z,7.72
2023-01-08T02:20:41.100Z,8.20
2023-01-08T02:23:17.082Z,8.25
2023-01-08T02:26:12.236Z,8.75
2023-01-08T02:29:02.581Z,8.13
2023-01-08T02:31:33.149Z,8.38
2023-01-08T02:33:59.841Z,8.52
2023-01-08T02:36:35.549Z,8.68
2023-01-08T02:41:44.365Z,8.77
2023-01-08T02:44:17.276Z,8.80
2023-01-08T02:46:44.755Z,8.82
2023-01-08T02:49:15.325Z,8.80
2023-01-08T02:51:48.368Z,9.43
2023-01-08T02:54:21.311Z,10.05
2023-01-08T02:56:53.362Z,9.30
2023-01-08T02:59:22.493Z,9.32
2023-01-08T03:01:50.000Z,9.10
2023-01-08T03:04:20.103Z,9.55
2023-01-08T03:06:46.988Z,9.13
2023-01-08T03:09:15.375Z,9.43
2023-01-08T03:12:05.878Z,9.30
2023-01-08T03:14:47.012Z,9.18
2023-01-08T03:17:23.682Z,9.80
2023-01-08T03:19:55.018Z,9.75
2023-01-08T03:22:23.485Z,9.38
2023-01-08T03:24:53.121Z,9.55
2023-01-08T03:27:27.528Z,9.63
2023-01-08T03:29:58.161Z,10.30
2023-01-08T03:32:27.235Z,9.52
2023-01-08T03:34:56.256Z,9.00
2023-01-08T03:37:32.744Z,9.25
2023-01-08T03:40:24.760Z,9.93
2023-01-08T03:42:51.632Z,9.23
2023-01-08T03:45:18.645Z,9.70
2023-01-08T03:47:46.296Z,10.10
2023-01-08T03:50:20.219Z,10.20
2023-01-08T03:52:46.891Z,10.15
2023-01-08T03:55:13.604Z,10.52
2023-01-08T03:57:40.280Z,10.23
2023-01-08T04:00:07.511Z,9.80
2023-01-08T04:02:34.301Z,10.23
2023-01-08T04:05:01.160Z,10.55
2023-01-08T04:07:27.847Z,10.52
2023-01-08T04:09:54.567Z,10.75
2023-01-08T04:12:21.216Z,10.43
2023-01-08T04:14:47.846Z,10.55
2023-01-08T04:17:14.538Z,10.50
2023-01-08T04:19:42.136Z,11.00
2023-01-08T04:22:12.439Z,10.65
2023-01-08T04:24:39.267Z,9.93
2023-01-08T04:27:06.179Z,10.48
2023-01-08T04:29:32.915Z,10.82
2023-01-08T04:32:00.496Z,10.98
2023-01-08T04:34:27.202Z,11.02
2023-01-08T04:36:53.838Z,11.00
2023-01-08T04:39:20.520Z,11.32
2023-01-08T04:41:47.269Z,10.60
2023-01-08T04:44:13.899Z,10.68
2023-01-08T04:46:40.566Z,11.55
2023-01-08T04:49:07.349Z,10.95
2023-01-08T04:51:34.029Z,11.07
2023-01-08T04:54:00.677Z,10.32
2023-01-08T04:56:27.351Z,10.45
2023-01-08T04:58:54.077Z,10.68
2023-01-08T05:01:23.443Z,10.80
2023-01-08T05:03:54.899Z,10.95
2023-01-08T05:06:21.645Z,10.88
2023-01-08T05:08:48.678Z,10.55
2023-01-08T05:11:15.496Z,10.80
2023-01-08T05:13:42.208Z,10.10
2023-01-08T05:16:08.904Z,10.70
2023-01-08T05:18:35.668Z,10.20
2023-01-08T05:21:03.691Z,10.52
2023-01-08T05:23:31.591Z,10.45
2023-01-08T05:26:02.444Z,10.63
2023-01-08T05:28:29.919Z,10.73
2023-01-08T05:30:57.620Z,10.45
2023-01-08T05:33:24.703Z,10.40
2023-01-08T05:35:51.498Z,10.65
2023-01-08T05:38:18.403Z,10.65
2023-01-08T05:40:45.254Z,10.32
2023-01-08T05:43:12.323Z,9.60
2023-01-08T05:45:39.042Z,10.43
2023-01-08T05:48:06.741Z,10.25
2023-01-08T05:50:33.878Z,9.60
2023-01-08T05:53:00.556Z,10.30
2023-01-08T05:55:27.492Z,11.95
2023-01-08T05:57:54.194Z,9.90
2023-01-08T06:00:20.982Z,10.30
2023-01-08T06:02:48.291Z,10.20
2023-01-08T06:05:15.563Z,9.50
2023-01-08T06:07:42.278Z,9.88
2023-01-08T06:10:09.318Z,9.88
2023-01-08T06:12:36.094Z,9.50
2023-01-08T06:15:03.857Z,9.43
2023-01-08T06:17:30.602Z,9.32
2023-01-08T06:19:57.472Z,10.55
2023-01-08T06:22:24.144Z,9.52
2023-01-08T06:24:50.846Z,9.63
2023-01-08T06:27:17.578Z,9.45
2023-01-08T06:29:44.344Z,9.52
2023-01-08T06:32:11.154Z,9.43
2023-01-08T06:34:38.154Z,9.73
2023-01-08T06:37:04.910Z,8.88
2023-01-08T06:39:31.607Z,9.50
2023-01-08T06:41:58.418Z,9.43
2023-01-08T06:44:25.436Z,9.13
2023-01-08T06:46:52.202Z,8.93
2023-01-08T06:49:19.138Z,9.20
2023-01-08T06:51:46.151Z,9.55
2023-01-08T06:54:13.697Z,8.80
2023-01-08T06:56:52.982Z,8.23
2023-01-08T06:59:21.241Z,7.82
2023-01-08T07:01:48.317Z,8.35
2023-01-08T07:04:15.276Z,8.43
2023-01-08T07:06:42.011Z,7.93
2023-01-08T07:09:12.860Z,7.78
2023-01-08T07:11:40.404Z,7.88
2023-01-08T07:14:07.279Z,8.00
2023-01-08T07:16:34.268Z,8.05
2023-01-08T07:19:01.227Z,6.85
2023-01-08T07:21:27.983Z,7.63
2023-01-08T07:23:54.867Z,7.00
2023-01-08T07:26:21.632Z,7.18
2023-01-08T07:28:48.329Z,7.65
2023-01-08T07:31:15.084Z,7.93
2023-01-08T07:33:41.811Z,7.30
2023-01-08T07:36:08.906Z,7.70
2023-01-08T07:38:35.670Z,8.20
2023-01-08T07:41:02.348Z,7.00
2023-01-08T07:43:29.052Z,7.20
2023-01-08T07:45:55.854Z,7.28
2023-01-08T07:48:22.542Z,6.80
2023-01-08T07:50:49.227Z,7.05
2023-01-08T07:53:15.965Z,6.95
2023-01-08T07:55:42.704Z,8.00
2023-01-08T07:58:12.226Z,7.47
2023-01-08T08:00:39.298Z,7.43
2023-01-08T08:03:08.024Z,8.05
2023-01-08T08:05:35.153Z,7.72
2023-01-08T08:08:02.486Z,7.88
2023-01-08T08:10:29.234Z,7.40
2023-01-08T08:12:55.974Z,8.30
2023-01-08T08:15:22.662Z,7.82
2023-01-08T08:17:49.961Z,7.32
2023-01-08T08:20:16.967Z,7.70
2023-01-08T08:22:44.127Z,7.63
2023-01-08T08:25:11.468Z,8.65
2023-01-08T08:27:38.217Z,8.00
2023-01-08T08:30:05.639Z,8.50
2023-01-08T08:32:32.395Z,8.65
2023-01-08T08:34:59.176Z,8.90
2023-01-08T08:37:25.873Z,9.05
2023-01-08T08:39:52.746Z,7.95
2023-01-08T08:42:19.496Z,9.02
2023-01-08T08:44:46.183Z,8.50
2023-01-08T08:47:13.538Z,8.57
2023-01-08T08:49:40.232Z,8.00
2023-01-08T08:52:07.371Z,7.82
2023-01-08T08:54:34.070Z,7.50
2023-01-08T08:57:00.889Z,7.90
2023-01-08T08:59:27.561Z,7.70
2023-01-08T09:01:54.380Z,7.95
2023-01-08T09:04:21.229Z,8.05
2023-01-08T09:06:47.961Z,7.07
2023-01-08T09:09:14.767Z,7.53
2023-01-08T09:11:41.742Z,7.45
2023-01-08T09:14:08.428Z,7.70
2023-01-08T09:16:35.216Z,7.78
2023-01-08T09:19:01.997Z,6.93
2023-01-08T09:21:28.823Z,6.95
2023-01-08T09:23:56.996Z,7.15
2023-01-08T09:26:23.829Z,6.72
2023-01-08T09:28:50.517Z,7.22
2023-01-08T09:31:17.499Z,7.65
2023-01-08T09:33:44.196Z,7.40
2023-01-08T09:36:14.146Z,8.00
2023-01-08T09:38:40.955Z,7.75
2023-01-08T09:41:30.188Z,7.47
2023-01-08T09:43:59.883Z,7.75
2023-01-08T09:46:28.429Z,6.65
2023-01-08T09:49:04.343Z,7.85
2023-01-08T09:51:39.929Z,6.80
2023-01-08T09:54:06.854Z,7.75
2023-01-08T09:56:35.148Z,7.47
2023-01-08T09:59:03.860Z,7.28
2023-01-08T10:01:36.118Z,6.53
2023-01-08T10:04:20.027Z,6.93
2023-01-08T10:06:52.469Z,6.55
2023-01-08T10:09:23.826Z,7.25
2023-01-08T10:11:51.534Z,7.50
2023-01-08T10:14:24.688Z,7.78
2023-01-08T10:16:57.290Z,7.70
2023-01-08T10:19:29.356Z,7.32
2023-01-08T10:21:59.752Z,7.90
2023-01-08T10:24:35.847Z,7.80
2023-01-08T10:27:17.624Z,7.40
2023-01-08T10:29:44.456Z,9.02
2023-01-08T10:32:32.304Z,7.93
2023-01-08T10:35:04.397Z,8.50
2023-01-08T10:37:42.327Z,8.77
2023-01-08T10:40:51.621Z,9.10
2023-01-08T10:43:34.699Z,9.55
2023-01-08T10:46:05.726Z,8.73
2023-01-08T10:48:39.257Z,9.80
2023-01-08T10:51:20.976Z,9.95
2023-01-08T10:53:47.743Z,11.00
2023-01-08T10:56:28.351Z,11.55
2023-01-08T10:59:00.812Z,10.45
2023-01-08T11:01:30.732Z,9.93
2023-01-08T11:04:02.331Z,10.85
2023-01-08T11:06:45.447Z,10.75
2023-01-08T11:09:28.632Z,10.98
2023-01-08T11:11:55.733Z,10.32
2023-01-08T11:14:35.846Z,11.43
2023-01-08T11:17:11.072Z,10.50
2023-01-08T11:19:37.825Z,10.32
2023-01-08T11:22:26.700Z,10.50
2023-01-08T11:24:54.673Z,10.45
2023-01-08T11:27:24.317Z,9.95
2023-01-08T11:30:04.663Z,11.15
2023-01-08T11:33:04.529Z,11.10
2023-01-08T11:35:39.239Z,10.10
2023-01-08T11:38:07.772Z,9.80
2023-01-08T11:40:44.335Z,9.65
2023-01-08T11:43:18.686Z,9.73
2023-01-08T11:46:03.575Z,11.35
2023-01-08T11:49:01.125Z,10.38
2023-01-08T11:51:36.619Z,9.95
2023-01-08T11:54:25.135Z,10.38
2023-01-08T11:57:00.631Z,10.05
2023-01-08T11:59:45.815Z,10.18
2023-01-08T12:02:37.224Z,10.13
2023-01-08T12:05:28.189Z,10.15
2023-01-08T12:08:16.520Z,9.73
2023-01-08T12:10:55.217Z,12.73
2023-01-08T12:13:36.400Z,9.95
2023-01-08T12:16:18.101Z,10.25
2023-01-08T12:19:16.954Z,10.73
2023-01-08T12:21:53.335Z,9.70
2023-01-08T12:24:35.995Z,10.05
2023-01-08T12:27:48.436Z,10.82
2023-01-08T12:30:29.265Z,10.65
2023-01-08T12:33:11.843Z,9.85
2023-01-08T12:35:40.863Z,10.90
2023-01-08T12:38:28.839Z,10.57
2023-01-08T12:41:10.851Z,10.40
2023-01-08T12:44:02.565Z,10.02
2023-01-08T12:46:33.452Z,10.95
2023-01-08T12:49:02.146Z,10.20
2023-01-08T12:51:35.937Z,10.20
2023-01-08T12:54:27.087Z,10.25
2023-01-08T12:56:59.941Z,9.63
2023-01-08T12:59:51.959Z,10.00
2023-01-08T13:02:49.819Z,10.25
2023-01-08T13:05:19.409Z,9.52
2023-01-08T13:07:48.217Z,10.35
2023-01-08T13:10:48.155Z,9.93
2023-01-08T13:13:33.197Z,8.68
2023-01-08T13:16:26.303Z,9.23
2023-01-08T13:19:01.832Z,9.65
2023-01-08T13:21:56.908Z,10.05
2023-01-08T13:24:34.779Z,10.38
2023-01-08T13:27:32.302Z,11.88
2023-01-08T13:29:59.031Z,10.05
2023-01-08T13:32:44.800Z,9.30
2023-01-08T13:35:17.786Z,9.32
2023-01-08T13:38:17.043Z,9.88
2023-01-08T13:40:43.711Z,11.23
2023-01-08T13:43:23.655Z,9.93
2023-01-08T13:46:02.702Z,11.82
2023-01-08T13:48:39.454Z,10.68
2023-01-08T13:51:07.061Z,12.13
2023-01-08T13:53:37.183Z,12.07
2023-01-08T13:56:10.988Z,11.40
2023-01-08T13:59:00.983Z,11.52
2023-01-08T14:01:51.755Z,11.15
2023-01-08T14:04:23.206Z,11.07
2023-01-08T14:06:50.843Z,11.77
2023-01-08T14:09:24.887Z,11.45
2023-01-08T14:11:54.976Z,13.75
2023-01-08T14:14:24.219Z,13.00
2023-01-08T14:16:53.109Z,11.75
2023-01-08T14:19:22.803Z,11.77
2023-01-08T14:22:03.372Z,15.38
2023-01-08T14:24:30.216Z,12.75
2023-01-08T14:27:00.380Z,12.38
2023-01-08T14:29:29.551Z,13.75
2023-01-08T14:31:59.024Z,11.80
2023-01-08T14:34:32.043Z,12.85
2023-01-08T14:37:07.865Z,12.77
2023-01-08T14:39:36.402Z,13.40
2023-01-08T14:42:19.672Z,12.60
2023-01-08T14:44:46.477Z,12.88
2023-01-08T14:47:32.714Z,14.05
2023-01-08T14:49:59.920Z,14.30
2023-01-08T14:52:27.019Z,14.23
2023-01-08T14:54:57.370Z,15.70
2023-01-08T14:57:25.556Z,16.50
2023-01-08T14:59:58.377Z,16.70
2023-01-08T15:02:32.347Z,15.07
2023-01-08T15:05:16.064Z,15.25
2023-01-08T15:07:53.892Z,15.23
2023-01-08T15:10:41.374Z,16.13
2023-01-08T15:13:37.219Z,16.45
2023-01-08T15:16:11.051Z,16.80
2023-01-08T15:18:51.926Z,17.02
2023-01-08T15:21:26.100Z,18.75
2023-01-08T15:23:56.481Z,16.70
2023-01-08T15:26:24.086Z,15.73
2023-01-08T15:29:06.101Z,18.52
2023-01-08T15:31:48.284Z,21.73
2023-01-08T15:34:18.691Z,39.25
2023-01-08T15:36:50.629Z,18.30
2023-01-08T15:39:17.512Z,19.52
2023-01-08T15:41:44.369Z,18.20
2023-01-08T15:44:14.308Z,16.70
2023-01-08T15:46:41.070Z,16.00
2023-01-08T15:49:08.943Z,17.20
2023-01-08T15:51:43.565Z,17.65
2023-01-08T15:54:12.681Z,17.38
2023-01-08T15:56:42.245Z,18.70
2023-01-08T15:59:09.849Z,17.33
2023-01-08T16:01:37.421Z,17.17
2023-01-08T16:04:04.382Z,18.85
2023-01-08T16:06:31.730Z,16.92
2023-01-08T16:08:58.878Z,18.35
2023-01-08T16:11:27.118Z,18.52
2023-01-08T16:13:54.419Z,17.90
2023-01-08T16:16:21.393Z,17.60
2023-01-08T16:18:48.322Z,17.35
2023-01-08T16:21:15.133Z,17.08
2023-01-08T16:23:41.990Z,17.55
2023-01-08T16:26:14.702Z,15.52
2023-01-08T16:28:42.712Z,15.02
2023-01-08T16:31:10.038Z,15.50
2023-01-08T16:33:37.634Z,16.25
2023-01-08T16:36:08.426Z,15.90
2023-01-08T16:38:36.479Z,15.93
2023-01-08T16:41:04.455Z,15.95
2023-01-08T16:43:38.123Z,15.00
2023-01-08T16:46:13.744Z,16.25
2023-01-08T16:48:44.317Z,16.20
2023-01-08T16:51:11.848Z,15.77
2023-01-08T16:53:39.062Z,15.45
2023-01-08T16:56:06.373Z,15.80
2023-01-08T16:58:34.018Z,16.02
2023-01-08T17:01:01.851Z,17.25
2023-01-08T17:03:28.961Z,15.45
2023-01-08T17:05:55.724Z,16.77
2023-01-08T17:08:22.514Z,15.93
2023-01-08T17:10:49.287Z,15.88
2023-01-08T17:13:16.625Z,15.68
2023-01-08T17:15:44.899Z,16.58
2023-01-08T17:18:11.747Z,15.32
2023-01-08T17:20:39.985Z,14.93
2023-01-08T17:23:07.939Z,15.38
2023-01-08T17:25:34.767Z,15.48
2023-01-08T17:28:01.551Z,14.63
2023-01-08T17:30:28.355Z,15.73
2023-01-08T17:32:55.474Z,15.43
2023-01-08T17:35:22.279Z,16.35
2023-01-08T17:37:49.335Z,18.38
2023-01-08T17:40:16.210Z,16.98
2023-01-08T17:42:55.030Z,17.45
2023-01-08T17:45:21.967Z,17.75
2023-01-08T17:47:48.774Z,18.75
2023-01-08T17:50:18.153Z,17.00
2023-01-08T17:52:46.469Z,48.75
2023-01-08T17:55:13.382Z,19.92
2023-01-08T17:57:40.161Z,17.80
2023-01-08T18:00:07.843Z,18.38
2023-01-08T18:02:34.622Z,19.02
2023-01-08T18:05:01.461Z,16.65
2023-01-08T18:07:28.295Z,17.85
2023-01-08T18:09:55.064Z,17.08
2023-01-08T18:12:21.863Z,16.60
2023-01-08T18:14:48.728Z,16.63
2023-01-08T18:17:18.539Z,16.85
2023-01-08T18:19:45.388Z,15.43
2023-01-08T18:22:12.227Z,15.23
2023-01-08T18:24:38.966Z,16.92
2023-01-08T18:27:06.224Z,14.77
2023-01-08T18:29:33.189Z,15.40
2023-01-08T18:32:00.095Z,13.82
2023-01-08T18:34:26.916Z,16.60
2023-01-08T18:36:53.695Z,15.82
2023-01-08T18:39:20.469Z,14.45
2023-01-08T18:41:47.289Z,15.77
2023-01-08T18:44:15.021Z,16.65
2023-01-08T18:46:41.793Z,15.38
2023-01-08T18:49:08.837Z,16.13
2023-01-08T18:51:35.823Z,17.58
2023-01-08T18:54:02.697Z,17.40
2023-01-08T18:56:32.719Z,16.45
2023-01-08T18:59:00.087Z,16.92
2023-01-08T19:01:27.675Z,17.83
2023-01-08T19:03:54.692Z,16.40
2023-01-08T19:06:22.077Z,17.42
2023-01-08T19:08:49.013Z,17.73
2023-01-08T19:11:15.909Z,17.23
2023-01-08T19:13:42.829Z,17.20
2023-01-08T19:16:12.664Z,17.20
2023-01-08T19:18:39.948Z,18.23
2023-01-08T19:21:11.623Z,17.65
2023-01-08T19:23:38.389Z,20.20
2023-01-08T19:26:07.083Z,25.27
2023-01-08T19:28:35.530Z,21.48
2023-01-08T19:31:02.908Z,19.73
2023-01-08T19:33:29.803Z,19.33
2023-01-08T19:36:01.104Z,20.13
2023-01-08T19:38:27.886Z,21.42
2023-01-08T19:41:00.139Z,18.83
2023-01-08T19:43:33.120Z,18.33
2023-01-08T19:46:08.690Z,19.10
2023-01-08T19:48:36.226Z,20.85
2023-01-08T19:51:11.904Z,19.55
2023-01-08T19:53:38.916Z,19.95
2023-01-08T19:56:08.729Z,19.67
2023-01-08T19:58:35.878Z,20.05
2023-01-08T20:01:13.021Z,19.95
2023-01-08T20:03:40.686Z,19.80
2023-01-08T20:06:09.281Z,20.63
2023-01-08T20:08:36.207Z,22.30
2023-01-08T20:11:11.403Z,22.00
2023-01-08T20:13:38.834Z,21.00
2023-01-08T20:16:08.101Z,21.45
2023-01-08T20:18:35.593Z,21.92
2023-01-08T20:21:07.824Z,21.65
2023-01-08T20:23:44.755Z,23.38
2023-01-08T20:26:17.068Z,24.35
2023-01-08T20:28:45.299Z,22.92
2023-01-08T20:31:21.443Z,23.63
2023-01-08T20:33:51.215Z,23.02
2023-01-08T20:36:26.575Z,23.15
2023-01-08T20:38:59.463Z,23.23
2023-01-08T20:41:29.558Z,23.85
2023-01-08T20:44:01.931Z,24.40
2023-01-08T20:46:31.763Z,24.00
2023-01-08T20:49:00.556Z,23.15
2023-01-08T20:51:27.407Z,24.98
2023-01-08T20:53:56.671Z,23.92
2023-01-08T20:56:26.082Z,24.08
2023-01-08T20:58:53.226Z,24.85
2023-01-08T21:01:22.638Z,22.33
2023-01-08T21:03:57.923Z,22.60
2023-01-08T21:06:30.881Z,23.85
2023-01-08T21:09:00.663Z,24.45
2023-01-08T21:11:27.938Z,23.33
2023-01-08T21:13:55.721Z,21.80
2023-01-08T21:16:28.208Z,22.25
2023-01-08T21:18:55.557Z,22.13
2023-01-08T21:21:31.197Z,23.35
2023-01-08T21:26:28.337Z,22.52
2023-01-08T21:28:55.337Z,20.00
2023-01-08T21:31:24.045Z,19.88
2023-01-08T21:33:50.817Z,21.55
2023-01-08T21:36:20.908Z,19.52
2023-01-08T21:38:49.258Z,19.65
2023-01-08T21:41:18.545Z,18.88
2023-01-08T21:43:45.236Z,19.23
2023-01-08T21:46:12.249Z,19.02
2023-01-08T21:48:39.289Z,18.20
2023-01-08T21:51:06.127Z,18.23
2023-01-08T21:53:36.475Z,19.17
2023-01-08T21:56:06.630Z,18.42
2023-01-08T21:58:35.617Z,18.95
2023-01-08T22:01:08.257Z,18.70
2023-01-08T22:03:35.013Z,19.05
2023-01-08T22:06:04.469Z,18.90
2023-01-08T22:08:31.551Z,18.70
2023-01-08T22:10:59.232Z,19.00
2023-01-08T22:13:26.681Z,19.42
2023-01-08T22:16:08.270Z,18.25
2023-01-08T22:18:35.906Z,17.83
2023-01-08T22:21:08.669Z,19.05
2023-01-08T22:23:35.979Z,17.70
2023-01-08T22:26:07.775Z,17.58
2023-01-08T22:28:34.681Z,17.33
2023-01-08T22:31:05.544Z,18.92
2023-01-08T22:33:32.264Z,17.15
2023-01-08T22:35:58.907Z,19.40
2023-01-08T22:38:25.592Z,18.52
2023-01-08T22:40:52.281Z,16.75
2023-01-08T22:43:19.070Z,17.80
2023-01-08T22:45:54.531Z,17.08
2023-01-08T22:48:21.367Z,18.20
2023-01-08T22:50:48.238Z,18.27
2023-01-08T22:53:15.302Z,17.42
2023-01-08T22:55:43.475Z,18.80
2023-01-08T22:58:10.164Z,17.77
2023-01-08T23:00:36.870Z,18.15
2023-01-08T23:03:04.394Z,17.75
2023-01-08T23:05:32.029Z,19.23
2023-01-08T23:07:58.726Z,17.75
2023-01-08T23:10:25.796Z,18.40
2023-01-08T23:12:52.563Z,18.08
2023-01-08T23:15:20.953Z,18.52
2023-01-08T23:17:52.589Z,19.42
2023-01-08T23:20:20.168Z,18.77
2023-01-08T23:22:47.321Z,19.35
2023-01-08T23:25:14.214Z,18.88
2023-01-08T23:27:40.938Z,18.92
2023-01-08T23:30:08.655Z,19.10
2023-01-08T23:32:35.304Z,18.58
2023-01-08T23:35:01.989Z,21.75
2023-01-08T23:37:28.716Z,20.42
2023-01-08T23:39:55.388Z,20.65
2023-01-08T23:42:22.075Z,20.58
2023-01-08T23:44:49.624Z,19.98
2023-01-08T23:47:16.354Z,21.05
2023-01-08T23:49:43.016Z,19.75
2023-01-08T23:52:09.697Z,19.85
2023-01-08T23:54:36.459Z,20.40
2023-01-08T23:57:03.599Z,21.38
2023-01-08T23:59:30.300Z,22.85
